»·PEaware :: PAA291 KOAK-KMFR

PAA291 :: KOAK-KMFR

FLIGHT INFORMATION

Flight Status: Arrived
Operator:
PanAm
More flights by this operator :: More flights under this callsign
Pilot: Dave P. (45)
Aircraft: BOEING 737-600
(B736)
More flights by this aircraft type
Origin: KOAK Metro Oakland Intl
United States
Destination: KMFR Rogue Valley Intl-Medford
United States
More flights between these airports :: More routes between these airports
Route: +OAK4 GRTFL ASHIE
File this flight plan on PilotEdge
Remarks: RMK / SIMBRIEF
Altitude:
(Current/Filed)
30,000ft
Speed:
(Current/Filed)
465kts
Departed: 25-Aug-19 09:28 AM
Arrived: 25-Aug-19 10:22 AM
Distance/Time
Traveled:
280nm/0:54
Distance/Time
To Go:
Arrived

Flight Plot

Page will automatically refresh every two minutes.

Flight plan parsing failed; only flown route is shown


Map Options




Map Legend


Flown Route
Filed Route
Departure Airport
Arrival Airport
Navaid (VOR, NDB)
Fix

Horizontal Profiles

Position Reports

Time Latitude Longitude Heading Altitude Ground
Speed
25-Aug-19 09:04 37.710540 -122.215801 299 13ft 0kts
25-Aug-19 09:05 37.710540 -122.215801 299 13ft 0kts
25-Aug-19 09:06 37.710540 -122.215801 299 13ft 0kts
25-Aug-19 09:07 37.710540 -122.215801 299 13ft 0kts
25-Aug-19 09:08 37.710540 -122.215801 299 13ft 0kts
25-Aug-19 09:09 37.710540 -122.215801 299 13ft 0kts
25-Aug-19 09:10 37.710540 -122.215801 299 13ft 0kts
25-Aug-19 09:11 37.710540 -122.215801 299 13ft 0kts
25-Aug-19 09:12 37.710540 -122.215801 299 13ft 0kts
25-Aug-19 09:13 37.710540 -122.215801 299 13ft 0kts
25-Aug-19 09:14 37.710540 -122.215801 299 13ft 0kts
25-Aug-19 09:15 37.710540 -122.215801 299 13ft 0kts
25-Aug-19 09:16 37.710540 -122.215801 299 13ft 0kts
25-Aug-19 09:17 37.710540 -122.215801 299 13ft 0kts
25-Aug-19 09:18 37.710540 -122.215801 299 13ft 0kts
25-Aug-19 09:19 37.710207 -122.215068 299 13ft 2kts
25-Aug-19 09:20 37.710189 -122.215028 299 13ft 0kts
25-Aug-19 09:21 37.710189 -122.215028 299 13ft 0kts
25-Aug-19 09:22 37.709470 -122.215267 216 13ft 3kts
25-Aug-19 09:23 37.709421 -122.215313 216 13ft 0kts
25-Aug-19 09:24 37.707107 -122.217673 218 13ft 14kts
25-Aug-19 09:25 37.703601 -122.213985 160 13ft 18kts
25-Aug-19 09:26 37.701987 -122.213971 236 13ft 10kts
25-Aug-19 09:27 37.707637 -122.223472 308 14ft 116kts
25-Aug-19 09:28 37.734077 -122.260713 310 1868ft 157kts
25-Aug-19 09:29 37.774432 -122.313475 310 2061ft 244kts
25-Aug-19 09:30 37.824637 -122.378457 322 5578ft 263kts
25-Aug-19 09:31 37.899534 -122.374513 11 8982ft 290kts
25-Aug-19 09:32 37.982465 -122.348542 12 11409ft 340kts
25-Aug-19 09:33 38.081567 -122.317376 12 13987ft 377kts
25-Aug-19 09:34 38.185021 -122.284656 11 17237ft 389kts
25-Aug-19 09:35 38.291962 -122.250653 11 20124ft 401kts
25-Aug-19 09:36 38.403504 -122.238339 353 22666ft 409kts
25-Aug-19 09:38 38.518488 -122.252561 352 24892ft 421kts
25-Aug-19 09:39 38.636663 -122.267564 351 26881ft 432kts
25-Aug-19 09:40 38.757776 -122.282957 351 28701ft 441kts
25-Aug-19 09:41 38.879530 -122.298486 351 29905ft 439kts
25-Aug-19 09:42 39.000546 -122.313996 351 29912ft 436kts
25-Aug-19 09:43 39.121323 -122.329534 351 29911ft 436kts
25-Aug-19 09:44 39.242374 -122.345165 351 29904ft 437kts
25-Aug-19 09:45 39.363323 -122.360838 351 29906ft 438kts
25-Aug-19 09:46 39.485010 -122.376661 351 29905ft 439kts
25-Aug-19 09:47 39.606544 -122.392519 351 29898ft 439kts
25-Aug-19 09:48 39.728363 -122.408472 351 29891ft 440kts
25-Aug-19 09:49 39.850364 -122.424505 351 29886ft 440kts
25-Aug-19 09:50 39.972176 -122.440570 351 29880ft 440kts
25-Aug-19 09:51 40.094791 -122.456799 351 29876ft 441kts
25-Aug-19 09:52 40.216702 -122.472995 351 29871ft 441kts
25-Aug-19 09:53 40.339074 -122.489307 351 29868ft 441kts
25-Aug-19 09:54 40.460998 -122.505624 351 29864ft 441kts
25-Aug-19 09:54 40.562999 -122.519318 351 29869ft 441kts
25-Aug-19 09:56 40.705324 -122.538497 350 29893ft 440kts
25-Aug-19 09:57 40.826984 -122.554957 350 29916ft 440kts
25-Aug-19 09:57 40.928653 -122.568759 350 29929ft 440kts
25-Aug-19 09:59 41.070176 -122.588046 350 28061ft 434kts
25-Aug-19 10:00 41.188125 -122.604183 350 25403ft 418kts
25-Aug-19 10:00 41.283085 -122.617215 351 24140ft 402kts
25-Aug-19 10:01 41.387692 -122.631611 350 23971ft 349kts
25-Aug-19 10:03 41.489040 -122.645607 349 23946ft 282kts
25-Aug-19 10:03 41.553002 -122.654464 349 23436ft 281kts
25-Aug-19 10:04 41.632215 -122.665467 350 20972ft 305kts
25-Aug-19 10:05 41.724948 -122.678370 351 16715ft 351kts
25-Aug-19 10:06 41.820615 -122.691678 351 13819ft 342kts
25-Aug-19 10:07 41.908681 -122.708456 338 12609ft 309kts
25-Aug-19 10:08 41.987676 -122.751181 335 10916ft 299kts
25-Aug-19 10:09 42.060603 -122.792183 335 10031ft 277kts
25-Aug-19 10:10 42.132066 -122.832952 335 9995ft 279kts
25-Aug-19 10:11 42.203632 -122.874042 335 9995ft 280kts
25-Aug-19 10:12 42.274898 -122.915129 335 9892ft 267kts
25-Aug-19 10:13 42.341658 -122.954448 335 8441ft 258kts
25-Aug-19 10:14 42.405573 -122.992491 335 6988ft 242kts
25-Aug-19 10:15 42.466454 -123.028318 335 5630ft 235kts
25-Aug-19 10:16 42.515389 -123.010157 72 5045ft 220kts
25-Aug-19 10:17 42.507192 -122.938966 157 3873ft 213kts
25-Aug-19 10:18 42.455810 -122.915691 160 2782ft 173kts
25-Aug-19 10:19 42.415037 -122.894313 160 1955ft 148kts
25-Aug-19 10:20 42.377698 -122.874723 158 1343ft 89kts
25-Aug-19 10:21 42.372940 -122.873207 249 1342ft 0kts
25-Aug-19 10:22 42.371947 -122.873328 151 1342ft 20kts
25-Aug-19 10:23 42.368879 -122.872048 242 1342ft 7kts
25-Aug-19 10:24 42.368095 -122.872238 252 1342ft 0kts
25-Aug-19 10:25 42.368095 -122.872238 252 1342ft 0kts
25-Aug-19 10:26 42.368095 -122.872238 252 1342ft 0kts

Navigation Log

Ident Type
Flight plan parsing failed, navigation log unavailable